• Join FlightAware (Why Join?)
  • Login
  • US Flag 
11:12PM EST


 

Airport Tracker/Info


-or-


 

Live Flight TrackerFlight Track Log ✈ AZU4316 ✈ 04-Jul-2014 ✈ SBKP / VCP - SBSR / SJP

Flight Track Log - Related Links

Times and Time Zones

All times are in EDT time to prevent confusion due to time zone crossing. See the AZU4316 flight status page for this flight to view local times or setup timezone preferences in your user account.

Time Position Orientation Groundspeed Altitude Reporting Facility
EDT Latitude Longitude Course Direction KTS MPH feet Rate Location/Type
06:17PM -23.0081 -47.1334 126° Southeast 131 151 2,100  Level FlightAware ADS-B (SDAM)
06:17PM -23.0130 -47.1260 125° Southeast 115 132 2,600 1,200 Climbing FlightAware ADS-B (SDAM)
06:18PM -23.0196 -47.1161 127° Southeast 132 152 2,800 600 Climbing FlightAware ADS-B (SDAM)
06:18PM -23.0276 -47.1048 128° Southeast 152 175 3,000 420 Climbing FlightAware ADS-B (SDAM)
06:18PM -23.0373 -47.0916 128° Southeast 172 198 3,100 480 Climbing FlightAware ADS-B (SDAM)
06:19PM -23.0447 -47.0816 128° Southeast 172 198 3,300 960 Climbing FlightAware ADS-B (SDAM)
06:19PM -23.0522 -47.0713 127° Southeast 172 198 3,600 960 Climbing FlightAware ADS-B (SDAM)
06:19PM -23.0592 -47.0615 127° Southeast 176 203 3,800 1,020 Climbing FlightAware ADS-B (SDAM)
06:19PM -23.0672 -47.0504 127° Southeast 177 204 4,100 1,020 Climbing FlightAware ADS-B (SDAM)
06:20PM -23.0747 -47.0401 128° Southeast 179 206 4,300 960 Climbing FlightAware ADS-B (SDAM)
06:20PM -23.0827 -47.0290 128° Southeast 180 207 4,600 1,200 Climbing FlightAware ADS-B (SDAM)
06:20PM -23.0904 -47.0184 128° Southeast 180 207 4,900 1,140 Climbing FlightAware ADS-B (SDAM)
06:20PM -23.0982 -47.0075 127° Southeast 181 208 5,200 960 Climbing FlightAware ADS-B (SDAM)
06:21PM -23.1067 -46.9975 142° Southeast 181 208 5,400 1,020 Climbing FlightAware ADS-B (SDAM)
06:21PM -23.1074 -46.9969 150° Southeast 181 208 5,500 720 Climbing FlightAware ADS-B (SBSP / CGH)
06:21PM -23.1122 -46.9946 163° South 182 209 5,500 600 Level FlightAware ADS-B (SBSP / CGH)
06:21PM -23.1166 -46.9937 175° South 183 211 5,600 1,200 Climbing FlightAware ADS-B (SBSP / CGH)
06:21PM -23.1206 -46.9939 189° South 184 212 5,700 1,080 Climbing FlightAware ADS-B (SBSP / CGH)
06:21PM -23.1255 -46.9955 203° Southwest 185 213 5,800 540 Climbing FlightAware ADS-B (SBSP / CGH)
06:21PM -23.1288 -46.9975 215° Southwest 187 215 5,800 600 Level FlightAware ADS-B (SBSP / CGH)
06:21PM -23.1324 -47.0005 221° Southwest 188 216 5,900 1,260 Climbing FlightAware ADS-B (SBSP / CGH)
06:21PM -23.1419 -47.0099 224° Southwest 188 216 6,200 1,020 Climbing FlightAware ADS-B (SBSP / CGH)
06:22PM -23.1517 -47.0203 225° Southwest 189 217 6,400 960 Climbing FlightAware ADS-B (SBSP / CGH)
06:22PM -23.1610 -47.0303 225° Southwest 190 219 6,700 960 Climbing FlightAware ADS-B (SBSP / CGH)
06:22PM -23.1706 -47.0404 225° Southwest 191 220 6,900 960 Climbing FlightAware ADS-B (SBSP / CGH)
06:22PM -23.1802 -47.0505 225° Southwest 192 221 7,200 960 Climbing FlightAware ADS-B (SBSP / CGH)
06:23PM -23.1901 -47.0609 224° Southwest 193 222 7,400 780 Climbing FlightAware ADS-B (SBSP / CGH)
06:23PM -23.1996 -47.0708 224° Southwest 194 223 7,600 960 Climbing FlightAware ADS-B (SBSP / CGH)
06:23PM -23.2099 -47.0815 224° Southwest 197 227 7,900 600 Climbing FlightAware ADS-B (SBSP / CGH)
06:23PM -23.2075 -47.0791 224° Southwest 197 227 7,800 780 Descending FlightAware ADS-B
06:23PM -23.2197 -47.0917 224° Southwest 198 228 8,100 780 Climbing FlightAware ADS-B (SBSP / CGH)
06:24PM -23.2227 -47.0949 224° Southwest 199 229 8,100 780 Level FlightAware ADS-B
06:24PM -23.2296 -47.1021 224° Southwest 200 230 8,300 1,260 Climbing FlightAware ADS-B (SBSP / CGH)
06:24PM -23.2397 -47.1126 224° Southwest 201 231 8,500 1,020 Climbing FlightAware ADS-B (SBSP / CGH)
06:24PM -23.2498 -47.1233 224° Southwest 202 232 8,800 960 Climbing FlightAware ADS-B (SBSP / CGH)
06:24PM -23.2603 -47.1342 225° Southwest 202 232 9,000 780 Climbing FlightAware ADS-B (SBSP / CGH)
06:25PM -23.2700 -47.1443 225° Southwest 204 235 9,200 900 Climbing FlightAware ADS-B (SBSP / CGH)
06:25PM -23.2737 -47.1485 230° Southwest 204 235 9,300 1,200 Climbing FlightAware ADS-B (SBSP / CGH)
06:25PM -23.2759 -47.1519 241° Southwest 206 237 9,400 1,200 Climbing FlightAware ADS-B (SBSP / CGH)
06:25PM -23.2782 -47.1575 253° West 207 238 9,500 600 Climbing FlightAware ADS-B (SBSP / CGH)
06:25PM -23.2792 -47.1629 264° West 207 238 9,500 600 Level FlightAware ADS-B (SBSP / CGH)
06:25PM -23.2791 -47.1676 273° West 208 239 9,600 1,200 Climbing FlightAware ADS-B (SBSP / CGH)
06:25PM -23.2780 -47.1731 288° West 208 239 9,700 600 Climbing FlightAware ADS-B (SBSP / CGH)
06:25PM -23.2760 -47.1779 298° West 207 238 9,700 600 Level FlightAware ADS-B (SBSP / CGH)
06:25PM -23.2679 -47.1911 306° West 208 239 9,900 780 Climbing FlightAware ADS-B (SBSP / CGH)
06:26PM -23.2557 -47.2090 303° West 208 239 10,300 900 Climbing FlightAware ADS-B
06:26PM -23.2494 -47.2182 307° West 210 242 10,400 720 Climbing FlightAware ADS-B (SDAM)
06:26PM -23.2316 -47.2439 307° West 215 247 10,700 660 Climbing FlightAware ADS-B (SDAM)
06:27PM -23.2136 -47.2704 307° West 218 251 11,100 660 Climbing FlightAware ADS-B (SDAM)
06:27PM -23.2095 -47.2764 306° West 219 252 11,200 780 Climbing FlightAware ADS-B
06:27PM -23.1955 -47.2971 307° West 221 254 11,500 780 Climbing FlightAware ADS-B (SDAM)
06:28PM -23.1773 -47.3241 307° West 225 259 11,800 540 Climbing FlightAware ADS-B (SDAM)
06:28PM -23.1745 -47.3283 306° West 226 260 11,900 600 Climbing FlightAware ADS-B
06:28PM -23.1588 -47.3515 307° West 226 260 12,100 660 Climbing FlightAware ADS-B (SDAM)
06:29PM -23.1511 -47.3629 306° West 225 259 12,300 720 Climbing FlightAware ADS-B
06:29PM -23.1401 -47.3792 307° West 223 257 12,500 840 Climbing FlightAware ADS-B (SDAM)
06:29PM -23.1218 -47.4061 307° West 224 258 12,900 540 Climbing FlightAware ADS-B (SDAM)
06:30PM -23.1125 -47.4198 306° West 225 259 13,000 600 Climbing FlightAware ADS-B
06:30PM -23.1035 -47.4331 307° West 223 257 13,200 780 Climbing FlightAware ADS-B (SDAM)
06:30PM -23.0846 -47.4608 307° West 222 255 13,500 600 Climbing FlightAware ADS-B (SDAM)
06:31PM -23.0774 -47.4712 306° West 222 255 13,700 600 Climbing FlightAware ADS-B
06:31PM -23.0665 -47.4873 307° West 221 254 13,800 540 Climbing FlightAware ADS-B (SDAM)
06:31PM -23.0477 -47.5150 307° West 223 257 14,100 540 Climbing FlightAware ADS-B (SDAM)
06:32PM -23.0499 -47.5117 306° West 222 255 14,100 600 Level FlightAware ADS-B
06:32PM -23.0289 -47.5410 315° West 223 257 14,400 540 Climbing FlightAware ADS-B (SDAM)
06:32PM -23.0227 -47.5469 321° Northwest 224 258 14,500 600 Climbing FlightAware ADS-B
06:32PM -23.0043 -47.5627 322° Northwest 224 258 14,700 480 Climbing FlightAware ADS-B (SDAM)
06:33PM -22.9799 -47.5837 322° Northwest 228 262 14,900 120 Climbing FlightAware ADS-B (SDAM)
06:33PM -22.9835 -47.5806 321° Northwest 228 262 14,800 360 Descending FlightAware ADS-B
06:33PM -22.9547 -47.6054 322° Northwest 230 265 15,100 600 Climbing FlightAware ADS-B (SDAM)
06:34PM -22.9567 -47.6036 322° Northwest 230 265 15,100 600 Level FlightAware ADS-B
06:34PM -22.9297 -47.6268 322° Northwest 232 267 15,400 360 Climbing FlightAware ADS-B (SDAM)
06:34PM -22.9318 -47.6250 322° Northwest 232 267 15,300 360 Descending FlightAware ADS-B
06:34PM -22.9037 -47.6491 322° Northwest 232 267 15,600 420 Climbing FlightAware ADS-B (SDAM)
06:35PM -22.8988 -47.6533 322° Northwest 233 268 15,600 360 Level FlightAware ADS-B
06:35PM -22.8785 -47.6707 322° Northwest 232 267 15,800 420 Climbing FlightAware ADS-B (SDAM)
06:36PM -22.8526 -47.6929 322° Northwest 234 269 16,000 240 Climbing FlightAware ADS-B
06:36PM -22.8363 -47.7068 322° Northwest 241 277 16,000  Level FlightAware ADS-B (SDAM)
06:36PM -22.8088 -47.7304 322° Northwest 250 288 16,000  Level FlightAware ADS-B (SDAM)
06:37PM -22.7814 -47.7538 322° Northwest 256 295 16,000  Level FlightAware ADS-B (SDAM)
06:37PM -22.7532 -47.7780 322° Northwest 260 299 16,000  Level FlightAware ADS-B (SDAM)
06:38PM -22.7244 -47.8026 322° Northwest 263 303 16,000  Level FlightAware ADS-B (SDAM)
06:38PM -22.6951 -47.8276 322° Northwest 263 303 16,000  Level FlightAware ADS-B (SDAM)
06:39PM -22.6661 -47.8523 322° Northwest 263 303 16,000  Level FlightAware ADS-B (SDAM)
06:39PM -22.6365 -47.8776 322° Northwest 263 303 16,000  Level FlightAware ADS-B (SDAM)
06:40PM -22.6076 -47.9022 322° Northwest 263 303 16,000  Level FlightAware ADS-B (SDAM)
06:40PM -22.5713 -47.9386 317° Northwest 266 306 16,000  Level FlightAware ADS-B (SDAM)
06:41PM -22.5440 -47.9667 317° Northwest 266 306 16,000  Level FlightAware ADS-B (SDAM)
06:41PM -22.5173 -47.9941 317° Northwest 266 306 16,000  Level FlightAware ADS-B (SDAM)
06:42PM -22.4906 -48.0215 317° Northwest 266 306 16,000  Level FlightAware ADS-B (SDAM)
06:42PM -22.4634 -48.0495 317° Northwest 266 306 16,000  Level FlightAware ADS-B (SDAM)
06:43PM -22.4365 -48.0770 317° Northwest 266 306 16,000  Level FlightAware ADS-B (SDAM)
06:43PM -22.4097 -48.1045 317° Northwest 266 306 16,000  Level FlightAware ADS-B (SDAM)
06:44PM -22.3829 -48.1319 317° Northwest 266 306 16,000  Level FlightAware ADS-B (SDAM)
06:44PM -22.3555 -48.1599 317° Northwest 266 306 16,000  Level FlightAware ADS-B (SDAM)
06:45PM -22.3290 -48.1871 317° Northwest 266 306 16,000  Level FlightAware ADS-B (SDAM)
06:45PM -22.3021 -48.2146 317° Northwest 266 306 16,000  Level FlightAware ADS-B (SDAM)
06:46PM -22.2750 -48.2424 317° Northwest 267 307 16,000  Level FlightAware ADS-B (SDAM)
06:46PM -22.2478 -48.2701 317° Northwest 265 305 16,000  Level FlightAware ADS-B (SDAM)
06:47PM -22.2211 -48.2973 317° Northwest 268 308 16,000  Level FlightAware ADS-B (SDAM)
06:47PM -22.1939 -48.3251 317° Northwest 267 307 16,000  Level FlightAware ADS-B (SDAM)
06:48PM -22.1672 -48.3523 317° Northwest 267 307 16,000  Level FlightAware ADS-B (SDAM)
06:48PM -22.1397 -48.3803 317° Northwest 267 307 16,000  Level FlightAware ADS-B (SDAM)
06:49PM -22.1124 -48.4081 317° Northwest 267 307 16,000  Level FlightAware ADS-B (SDAM)
06:49PM -22.0854 -48.4356 317° Northwest 267 307 16,000  Level FlightAware ADS-B (SDAM)
06:50PM -22.0588 -48.4627 317° Northwest 267 307 16,000  Level FlightAware ADS-B (SDAM)
06:50PM -22.0312 -48.4908 317° Northwest 267 307 16,000  Level FlightAware ADS-B (SDAM)
06:51PM -22.0042 -48.5182 317° Northwest 267 307 16,000  Level FlightAware ADS-B (SDAM)
06:51PM -21.9775 -48.5453 317° Northwest 267 307 16,000  Level FlightAware ADS-B (SDAM)
06:52PM -21.9503 -48.5729 317° Northwest 268 308 16,000  Level FlightAware ADS-B (SDAM)
06:52PM -21.9234 -48.6003 317° Northwest 267 307 16,000  Level FlightAware ADS-B (SDAM)
06:53PM -21.8957 -48.6284 317° Northwest 268 308 16,000  Level FlightAware ADS-B (SDAM)
06:53PM -21.8690 -48.6554 317° Northwest 268 308 16,000  Level FlightAware ADS-B (SDAM)
06:54PM -21.8413 -48.6835 317° Northwest 268 308 16,000  Level FlightAware ADS-B (SDAM)
06:54PM -21.8147 -48.7105 317° Northwest 268 308 16,000  Level FlightAware ADS-B (SDAM)
06:55PM -21.7869 -48.7387 317° Northwest 268 308 16,000  Level FlightAware ADS-B (SDAM)
06:55PM -21.7603 -48.7656 317° Northwest 268 308 16,000  Level FlightAware ADS-B (SDAM)
06:56PM -21.7344 -48.7917 317° Northwest 268 308 16,000  Level FlightAware ADS-B (SDAM)
06:56PM -21.7278 -48.7985 317° Northwest 268 308 16,000  Level FlightAware ADS-B (SDAM)
07:01PM -21.4946 -49.0334 317° Northwest 242 278 16,000  Level FlightAware ADS-B (SDAM)
07:01PM -21.4819 -49.0462 317° Northwest 243 280 16,000  Level FlightAware ADS-B (SDAM)
07:04PM -21.3586 -49.1133 333° Northwest  Level Estimated
07:05PM -21.3102 -49.1395 333° Northwest  Level Estimated
07:06PM -21.2618 -49.1658 333° Northwest  Level Estimated
07:07PM -21.2134 -49.1920 333° Northwest  Level Estimated
07:08PM -21.1650 -49.2183 333° Northwest  Level Estimated
07:09PM -21.1166 -49.2444 333° Northwest  Level Estimated
07:10PM -21.0682 -49.2706 333° Northwest  Level Estimated
07:11PM -21.0198 -49.2968 333° Northwest  Level Estimated
07:12PM -20.9714 -49.3230 333° Northwest  Level Estimated
07:13PM -20.9230 -49.3491 333° Northwest  Level Estimated
07:14PM -20.8746 -49.3752 333° Northwest  Level Estimated
07:15PM -20.8262 -49.4013 333° Northwest  Level Estimated
07:16PM -20.8166 -49.4065 333° Northwest  Level Estimated
07:17PM -20.8166 -49.4065 North  Level Estimated
07:18PM -20.8166 -49.4065 North  Level Estimated
07:19PM -20.8166 -49.4065 North  Level Estimated
07:20PM -20.8166 -49.4065 North  Level Estimated
07:21PM -20.8166 -49.4065 North  Level Estimated
07:22PM -20.8166 -49.4065 North  Level Estimated
07:23PM -20.8166 -49.4065 North  Level Estimated
07:24PM -20.8166 -49.4065 North  Level Estimated
07:25PM -20.8166 -49.4065 North  Level Estimated
07:26PM -20.8166 -49.4065 North  Level Estimated
07:27PM -20.8166 -49.4065 North  Level Estimated
07:28PM -20.8166 -49.4065 North  Level Estimated
07:29PM -20.8166 -49.4065 North  Level Estimated